Time;durP1;ratioP1;P1;durP2;ratioP2;P2;SDS_P1;SDS_P2;PMS_P1;PMS_P2;Temp;Humidity;BMP_temperature;BMP_pressure;BME280_temperature;BME280_humidity;BME280_pressure;Samples;Min_cycle;Max_cycle;Signal;HPM_P1;HPM_P2
2023/06/26 00:01:20;;;;;;;5.40;4.30;;;26.20;97.00;;;;;;4860549;29;20037;-82
2023/06/26 00:03:46;;;;;;;6.00;4.53;;;26.20;97.00;;;;;;4860306;29;20471;-82
2023/06/26 00:06:12;;;;;;;4.72;4.25;;;26.10;96.90;;;;;;4859947;29;20036;-82
2023/06/26 00:08:38;;;;;;;4.60;4.20;;;26.20;96.90;;;;;;4860617;29;20026;-82
2023/06/26 00:11:03;;;;;;;7.38;4.38;;;26.20;96.90;;;;;;4860399;29;20038;-82
2023/06/26 00:13:29;;;;;;;5.20;4.80;;;26.10;96.90;;;;;;4859691;29;20029;-82
2023/06/26 00:15:54;;;;;;;9.02;4.25;;;26.10;96.80;;;;;;4860460;29;20058;-82
2023/06/26 00:18:20;;;;;;;6.50;4.35;;;26.10;97.00;;;;;;4860554;29;20474;-82
2023/06/26 00:20:46;;;;;;;4.57;4.18;;;26.00;97.20;;;;;;4859535;29;20045;-82
2023/06/26 00:23:13;;;;;;;4.68;4.38;;;26.00;97.20;;;;;;4860288;29;20033;-82
2023/06/26 00:25:38;;;;;;;8.02;4.85;;;26.00;97.70;;;;;;4860383;29;20132;-82
2023/06/26 00:28:04;;;;;;;5.05;4.65;;;25.90;97.90;;;;;;4859723;29;20399;-82
2023/06/26 00:30:29;;;;;;;6.90;4.85;;;25.90;98.20;;;;;;4860332;29;20025;-82
2023/06/26 00:32:55;;;;;;;5.53;5.03;;;25.90;98.60;;;;;;4859283;29;20026;-83
2023/06/26 00:35:21;;;;;;;5.75;5.22;;;25.80;98.50;;;;;;4860009;29;20037;-82
2023/06/26 00:37:46;;;;;;;5.72;4.45;;;25.70;98.70;;;;;;4860062;29;20030;-82
2023/06/26 00:40:12;;;;;;;5.25;4.05;;;25.60;98.80;;;;;;4859722;29;20168;-82
2023/06/26 00:42:38;;;;;;;10.77;4.50;;;25.50;99.00;;;;;;4860196;29;20036;-82
2023/06/26 00:45:04;;;;;;;7.32;4.10;;;25.30;99.00;;;;;;4859844;29;20037;-82
2023/06/26 00:47:30;;;;;;;5.45;4.25;;;25.20;99.30;;;;;;4859239;29;20032;-82
2023/06/26 00:49:55;;;;;;;6.97;4.20;;;25.00;99.20;;;;;;4859769;29;20076;-82
2023/06/26 00:52:23;;;;;;;6.07;3.75;;;25.00;99.50;;;;;;4860082;29;20026;-82
2023/06/26 00:54:51;;;;;;;5.78;3.55;;;24.90;99.70;;;;;;4859059;29;20041;-82
2023/06/26 00:57:16;;;;;;;9.82;4.40;;;24.90;99.80;;;;;;4860216;29;20483;-82
2023/06/26 00:59:42;;;;;;;6.28;3.58;;;24.70;99.90;;;;;;4860682;29;20089;-82
2023/06/26 01:02:09;;;;;;;5.97;4.03;;;24.60;99.90;;;;;;4862994;29;20057;-82
2023/06/26 01:04:35;;;;;;;11.23;4.15;;;24.50;99.90;;;;;;4863738;29;20037;-82
2023/06/26 01:07:01;;;;;;;6.78;4.07;;;24.50;99.90;;;;;;4863367;29;20036;-82
2023/06/26 01:09:27;;;;;;;6.35;3.72;;;24.40;99.90;;;;;;4862934;29;20032;-82
2023/06/26 01:11:53;;;;;;;8.48;3.38;;;24.40;99.90;;;;;;4863514;29;20402;-82
2023/06/26 01:14:19;;;;;;;8.23;3.60;;;24.30;99.90;;;;;;4863838;29;20074;-82
2023/06/26 01:17:00;;;;;;;7.28;3.60;;;24.20;99.90;;;;;;4862792;29;20033;-82
2023/06/26 01:19:29;;;;;;;10.25;4.30;;;24.50;99.90;;;;;;4863516;29;20086;-83
2023/06/26 01:22:18;;;;;;;11.53;4.70;;;24.10;99.90;;;;;;4862936;29;20029;-83
2023/06/26 01:25:03;;;;;;;5.30;3.50;;;24.10;99.90;;;;;;4862712;29;20037;-81
2023/06/26 01:27:32;;;;;;;6.88;3.35;;;24.20;99.90;;;;;;4863535;29;20032;-82
2023/06/26 01:30:01;;;;;;;6.53;3.80;;;24.10;99.90;;;;;;4862429;29;20113;-83
2023/06/26 01:32:28;;;;;;;11.55;4.32;;;24.10;99.90;;;;;;4863370;29;20037;-82
2023/06/26 01:34:54;;;;;;;8.30;4.07;;;24.10;99.90;;;;;;4862711;29;20505;-81
2023/06/26 01:37:20;;;;;;;16.80;4.90;;;23.90;99.90;;;;;;4862492;29;20041;-81
2023/06/26 01:39:45;;;;;;;7.57;4.57;;;24.00;99.90;;;;;;4862693;29;20089;-82
2023/06/26 01:42:11;;;;;;;15.85;4.40;;;24.00;99.90;;;;;;4863083;29;20034;-81
2023/06/26 01:44:45;;;;;;;9.57;4.28;;;24.00;99.90;;;;;;4862395;29;20026;-82
2023/06/26 01:47:17;;;;;;;11.07;4.25;;;23.90;99.90;;;;;;4863430;29;20022;-82
2023/06/26 01:50:06;;;;;;;10.27;4.13;;;23.80;99.90;;;;;;4863194;29;20037;-82
2023/06/26 01:52:41;;;;;;;10.48;4.88;;;23.90;99.90;;;;;;4862318;29;20030;-82
2023/06/26 01:55:45;;;;;;;9.60;4.30;;;23.80;99.90;;;;;;4862691;29;20026;-82
2023/06/26 01:58:12;;;;;;;13.93;5.03;;;23.80;99.90;;;;;;4860152;29;20037;-82
2023/06/26 02:00:38;;;;;;;12.00;5.03;;;23.90;99.90;;;;;;4862783;29;20097;-82
2023/06/26 02:03:04;;;;;;;12.20;4.47;;;23.90;99.90;;;;;;4862645;29;20034;-82
2023/06/26 02:05:30;;;;;;;12.60;5.18;;;23.80;99.90;;;;;;4862125;29;20052;-83
2023/06/26 02:07:56;;;;;;;10.25;4.68;;;23.80;99.90;;;;;;4862441;29;20470;-82
2023/06/26 02:10:22;;;;;;;11.90;4.68;;;23.80;99.90;;;;;;4862203;29;20033;-83
2023/06/26 02:12:47;;;;;;;13.50;5.60;;;23.80;99.90;;;;;;4860416;29;20037;-82
2023/06/26 02:15:13;;;;;;;11.05;5.82;;;23.80;99.90;;;;;;4862241;29;20089;-82
2023/06/26 02:17:39;;;;;;;14.52;5.13;;;23.80;99.90;;;;;;4862504;29;20086;-82
2023/06/26 02:20:05;;;;;;;17.23;5.63;;;23.70;99.90;;;;;;4861294;29;20116;-82
2023/06/26 02:22:31;;;;;;;17.17;5.47;;;23.70;99.90;;;;;;4862515;29;20555;-83
2023/06/26 02:24:57;;;;;;;15.23;5.40;;;23.50;99.90;;;;;;4862136;29;20049;-82
2023/06/26 02:27:22;;;;;;;12.25;5.47;;;23.60;99.90;;;;;;4861949;29;20033;-84
2023/06/26 02:29:48;;;;;;;15.45;5.95;;;23.60;99.90;;;;;;4862159;29;20486;-84
2023/06/26 02:32:13;;;;;;;10.45;5.28;;;23.70;99.90;;;;;;4862161;29;20038;-84
2023/06/26 02:34:39;;;;;;;13.27;5.10;;;23.60;99.90;;;;;;4861432;29;20029;-84
2023/06/26 02:37:07;;;;;;;8.85;4.70;;;23.60;99.90;;;;;;4861993;29;20053;-83
2023/06/26 02:39:33;;;;;;;14.68;4.97;;;23.60;99.90;;;;;;4861758;29;20029;-83
2023/06/26 02:41:59;;;;;;;19.98;5.85;;;23.60;99.90;;;;;;4862072;29;20117;-83
2023/06/26 02:44:24;;;;;;;12.38;5.10;;;23.60;99.90;;;;;;4862208;29;20455;-83
2023/06/26 02:46:50;;;;;;;18.20;5.07;;;23.70;99.90;;;;;;4861149;29;20645;-83
2023/06/26 02:49:16;;;;;;;12.88;5.20;;;23.60;99.90;;;;;;4862007;29;20030;-83
2023/06/26 02:51:41;;;;;;;14.55;5.38;;;23.60;99.90;;;;;;4862052;29;20387;-83
2023/06/26 02:54:07;;;;;;;19.40;4.82;;;23.60;99.90;;;;;;4861185;29;20049;-82
2023/06/26 02:56:32;;;;;;;11.68;4.43;;;23.60;99.90;;;;;;4861675;29;20021;-83
2023/06/26 02:58:58;;;;;;;11.23;4.78;;;23.50;99.90;;;;;;4861682;29;20033;-83
2023/06/26 03:01:24;;;;;;;14.45;4.53;;;23.50;99.90;;;;;;4861081;29;20042;-82
2023/06/26 03:03:49;;;;;;;11.48;4.70;;;23.50;99.90;;;;;;4861729;29;20026;-82
2023/06/26 03:06:15;;;;;;;9.63;4.30;;;23.40;99.90;;;;;;4861640;29;21150;-83
2023/06/26 03:08:41;;;;;;;17.02;4.82;;;23.40;99.90;;;;;;4860885;29;20136;-83
2023/06/26 03:11:08;;;;;;;9.15;4.65;;;23.40;99.90;;;;;;4861121;29;20081;-83
2023/06/26 03:13:37;;;;;;;11.50;4.85;;;23.30;99.90;;;;;;4861687;29;20026;-82
2023/06/26 03:16:03;;;;;;;12.77;5.05;;;23.30;99.90;;;;;;4860685;29;20062;-82
2023/06/26 03:18:29;;;;;;;11.73;4.78;;;23.20;99.90;;;;;;4860787;29;20112;-83
2023/06/26 03:20:56;;;;;;;9.45;4.50;;;23.10;99.90;;;;;;4861450;29;20611;-83
2023/06/26 03:23:23;;;;;;;12.30;5.22;;;23.40;99.90;;;;;;4860383;29;20140;-83
2023/06/26 03:25:49;;;;;;;18.00;4.72;;;23.10;99.90;;;;;;4860769;29;20030;-82
2023/06/26 03:28:15;;;;;;;18.25;5.20;;;23.00;99.90;;;;;;4861437;29;20033;-83
2023/06/26 03:30:40;;;;;;;24.60;4.43;;;23.10;99.90;;;;;;4860623;29;20470;-83
2023/06/26 03:33:06;;;;;;;13.60;5.15;;;23.00;99.90;;;;;;4860770;29;20097;-82
2023/06/26 03:35:32;;;;;;;12.13;5.10;;;22.80;99.90;;;;;;4861183;29;20049;-83
2023/06/26 03:37:58;;;;;;;9.40;4.72;;;22.80;99.90;;;;;;4860311;29;20028;-83
2023/06/26 03:40:24;;;;;;;10.38;4.40;;;23.00;99.90;;;;;;4861269;29;20038;-82
2023/06/26 03:42:50;;;;;;;17.17;5.30;;;22.70;99.90;;;;;;4860145;29;20486;-83
2023/06/26 03:45:15;;;;;;;12.50;4.88;;;22.70;99.90;;;;;;4861040;29;20037;-83
2023/06/26 03:47:41;;;;;;;17.10;5.20;;;22.70;99.90;;;;;;4860771;29;20044;-83
2023/06/26 03:50:07;;;;;;;13.45;5.30;;;22.70;99.90;;;;;;4859859;29;20152;-83
2023/06/26 03:52:32;;;;;;;11.63;4.93;;;22.60;99.90;;;;;;4860262;29;20041;-83
2023/06/26 03:54:58;;;;;;;8.77;5.25;;;22.50;99.90;;;;;;4860675;29;20387;-83
2023/06/26 03:57:24;;;;;;;15.15;4.95;;;22.50;99.90;;;;;;4860190;29;20418;-83
2023/06/26 03:59:50;;;;;;;10.27;4.65;;;22.50;99.90;;;;;;4860542;29;20110;-83
2023/06/26 04:02:16;;;;;;;9.65;4.35;;;22.50;99.90;;;;;;4860728;29;20029;-83
2023/06/26 04:04:41;;;;;;;10.25;5.00;;;22.50;99.90;;;;;;4859931;29;20025;-83
2023/06/26 04:07:07;;;;;;;12.40;4.65;;;22.80;99.90;;;;;;4860625;29;20029;-82
2023/06/26 04:09:32;;;;;;;9.68;4.80;;;22.60;99.90;;;;;;4860836;29;20029;-83
2023/06/26 04:11:58;;;;;;;12.30;4.88;;;22.60;99.90;;;;;;4859730;29;20034;-83
2023/06/26 04:14:24;;;;;;;14.90;4.90;;;22.60;99.90;;;;;;4860477;29;20025;-82
2023/06/26 04:16:49;;;;;;;9.30;4.97;;;22.50;99.90;;;;;;4860209;29;20105;-82
2023/06/26 04:19:15;;;;;;;13.50;5.15;;;22.50;99.90;;;;;;4860320;29;20033;-82
2023/06/26 04:21:40;;;;;;;13.88;4.40;;;22.50;99.90;;;;;;4860620;29;20458;-82
2023/06/26 04:24:06;;;;;;;13.43;5.10;;;22.60;99.90;;;;;;4859760;29;20542;-83
2023/06/26 04:26:32;;;;;;;12.40;4.47;;;22.40;99.90;;;;;;4859777;29;20086;-83
2023/06/26 04:28:57;;;;;;;11.30;4.43;;;22.40;99.90;;;;;;4859995;29;20475;-83
2023/06/26 04:31:23;;;;;;;12.00;4.55;;;22.40;99.90;;;;;;4860328;29;20124;-83
2023/06/26 04:33:54;;;;;;;13.80;5.15;;;22.40;99.90;;;;;;4859083;29;20112;-83
2023/06/26 04:36:20;;;;;;;12.73;4.78;;;22.40;99.90;;;;;;4860101;29;20033;-83
2023/06/26 04:38:47;;;;;;;16.85;5.25;;;22.30;99.90;;;;;;4859738;29;20044;-83
2023/06/26 04:41:13;;;;;;;14.77;6.03;;;22.40;99.90;;;;;;4859593;29;20236;-83
2023/06/26 04:43:39;;;;;;;13.00;4.57;;;22.30;99.90;;;;;;4860135;29;20541;-83
2023/06/26 04:46:05;;;;;;;11.57;4.65;;;22.20;99.90;;;;;;4859414;29;20030;-83
2023/06/26 04:48:32;;;;;;;11.45;4.13;;;22.30;99.90;;;;;;4860585;29;20034;-83
2023/06/26 04:50:58;;;;;;;14.15;4.85;;;22.30;99.90;;;;;;4859859;29;20423;-83
2023/06/26 04:53:25;;;;;;;9.13;4.60;;;22.20;99.90;;;;;;4859421;29;20029;-82
2023/06/26 04:55:53;;;;;;;13.70;5.25;;;22.30;99.90;;;;;;4859537;29;20082;-82
2023/06/26 04:58:20;;;;;;;13.15;4.78;;;22.20;99.90;;;;;;4860061;29;20360;-82
2023/06/26 05:00:46;;;;;;;10.82;5.10;;;22.30;99.90;;;;;;4858987;29;20052;-83
2023/06/26 05:03:13;;;;;;;12.25;4.93;;;22.30;99.90;;;;;;4859944;29;20050;-83
2023/06/26 05:05:39;;;;;;;8.30;4.20;;;22.30;99.90;;;;;;4859640;29;20372;-83
2023/06/26 05:08:14;;;;;;;16.10;4.47;;;22.30;99.90;;;;;;4859284;29;20090;-83
2023/06/26 05:10:40;;;;;;;13.23;4.70;;;22.20;99.90;;;;;;4859906;29;20087;-84
2023/06/26 05:13:05;;;;;;;11.65;4.47;;;22.30;99.90;;;;;;4859600;29;20378;-83
2023/06/26 05:15:31;;;;;;;11.70;4.20;;;22.30;99.90;;;;;;4859325;29;20025;-83
2023/06/26 05:17:56;;;;;;;9.50;4.75;;;22.20;99.90;;;;;;4859805;29;20430;-84
2023/06/26 05:20:22;;;;;;;8.93;4.40;;;22.20;99.90;;;;;;4859416;29;20128;-84
2023/06/26 05:22:49;;;;;;;12.00;4.10;;;22.20;99.90;;;;;;4858775;29;20022;-83
2023/06/26 05:25:15;;;;;;;12.15;4.15;;;22.30;99.90;;;;;;4859682;29;20161;-83
2023/06/26 05:27:42;;;;;;;13.50;4.35;;;22.20;99.90;;;;;;4859489;29;20435;-84
2023/06/26 05:30:08;;;;;;;8.38;3.95;;;22.20;99.90;;;;;;4858558;29;20045;-83
2023/06/26 05:32:38;;;;;;;8.95;3.88;;;22.20;99.90;;;;;;4859645;29;20033;-83
2023/06/26 05:35:04;;;;;;;3.90;3.20;;;22.20;99.90;;;;;;4859332;29;20046;-83
2023/06/26 05:37:31;;;;;;;7.45;3.67;;;22.20;99.90;;;;;;4858750;29;20037;-83
2023/06/26 05:39:57;;;;;;;6.57;3.33;;;22.20;99.90;;;;;;4859784;29;20112;-83
2023/06/26 05:42:23;;;;;;;6.53;3.13;;;22.20;99.90;;;;;;4858334;29;20166;-83
2023/06/26 05:44:49;;;;;;;6.40;3.60;;;22.20;99.90;;;;;;4859490;29;20041;-83
2023/06/26 05:47:14;;;;;;;7.75;3.50;;;22.10;99.90;;;;;;4862567;29;20093;-83
2023/06/26 05:49:40;;;;;;;7.75;2.95;;;22.10;99.90;;;;;;4862297;29;20407;-83
2023/06/26 05:52:06;;;;;;;8.80;3.70;;;22.10;99.90;;;;;;4863044;29;20035;-83
2023/06/26 05:54:32;;;;;;;9.90;3.30;;;22.10;99.90;;;;;;4862674;29;20063;-83
2023/06/26 05:56:59;;;;;;;8.00;4.18;;;22.00;99.90;;;;;;4861757;29;20497;-83
2023/06/26 05:59:26;;;;;;;4.72;3.30;;;21.90;99.90;;;;;;4863037;29;20056;-84
2023/06/26 06:01:52;;;;;;;5.53;3.42;;;21.90;99.90;;;;;;4862463;29;20170;-83
2023/06/26 06:04:17;;;;;;;7.95;3.60;;;21.90;99.90;;;;;;4862690;29;20483;-83
2023/06/26 06:06:43;;;;;;;6.07;3.58;;;21.90;99.90;;;;;;4862701;29;20566;-84
2023/06/26 06:09:09;;;;;;;4.32;3.15;;;21.90;99.90;;;;;;4862165;29;20025;-84
2023/06/26 06:11:34;;;;;;;6.30;3.30;;;22.00;99.90;;;;;;4861832;29;20074;-83
2023/06/26 06:14:00;;;;;;;6.05;2.92;;;22.00;99.90;;;;;;4862546;29;20033;-83
2023/06/26 06:16:28;;;;;;;5.57;2.85;;;22.00;99.90;;;;;;4862918;29;20105;-83
2023/06/26 06:18:54;;;;;;;3.33;2.78;;;22.10;99.90;;;;;;4862115;29;20125;-83
2023/06/26 06:21:20;;;;;;;9.52;2.75;;;21.90;99.90;;;;;;4862282;29;20124;-83
2023/06/26 06:23:46;;;;;;;8.45;3.20;;;22.00;99.90;;;;;;4861872;29;20054;-83
2023/06/26 06:26:12;;;;;;;5.75;2.47;;;22.00;99.90;;;;;;4861516;29;20510;-83
2023/06/26 06:28:39;;;;;;;8.82;2.30;;;22.00;99.90;;;;;;4862050;29;20406;-83
2023/06/26 06:31:04;;;;;;;7.60;2.63;;;21.90;99.90;;;;;;4862183;29;20408;-83
2023/06/26 06:33:30;;;;;;;11.88;2.72;;;22.00;99.90;;;;;;4861808;29;20028;-83
2023/06/26 06:35:56;;;;;;;5.78;2.00;;;21.80;99.90;;;;;;4861931;29;20029;-83
2023/06/26 06:38:21;;;;;;;4.80;1.98;;;21.90;99.90;;;;;;4862036;29;20098;-83
2023/06/26 06:40:47;;;;;;;7.30;2.40;;;21.80;99.90;;;;;;4861010;29;20037;-84
2023/06/26 06:43:12;;;;;;;9.25;1.70;;;21.80;99.90;;;;;;4861950;29;20113;-84
2023/06/26 06:45:38;;;;;;;8.30;2.55;;;21.80;99.90;;;;;;4861317;29;20432;-83
2023/06/26 06:48:04;;;;;;;3.53;1.73;;;21.90;99.90;;;;;;4861636;29;20490;-83
2023/06/26 06:50:30;;;;;;;4.57;1.40;;;21.80;99.90;;;;;;4861915;29;20093;-83
2023/06/26 06:52:56;;;;;;;4.85;1.40;;;21.70;99.90;;;;;;4860951;29;20025;-83
2023/06/26 06:55:22;;;;;;;3.10;1.48;;;21.60;99.90;;;;;;4861956;29;20173;-83
2023/06/26 06:57:48;;;;;;;7.28;1.85;;;21.70;99.90;;;;;;4862053;29;20034;-83
2023/06/26 07:00:14;;;;;;;6.63;1.58;;;21.70;99.90;;;;;;4860800;29;20060;-83
2023/06/26 07:02:42;;;;;;;5.93;1.73;;;21.70;99.90;;;;;;4861386;29;20041;-83
2023/06/26 07:05:09;;;;;;;4.82;1.83;;;21.70;99.90;;;;;;4861457;29;20463;-83
2023/06/26 07:07:35;;;;;;;4.47;1.58;;;21.70;99.90;;;;;;4860897;29;20050;-83
2023/06/26 07:10:10;;;;;;;7.03;1.63;;;21.70;99.90;;;;;;4861490;29;20025;-83
2023/06/26 07:12:36;;;;;;;5.82;1.67;;;21.70;99.90;;;;;;4861378;29;20533;-83
2023/06/26 07:15:04;;;;;;;9.45;1.92;;;21.70;99.90;;;;;;4861018;29;20034;-83
2023/06/26 07:17:30;;;;;;;3.05;1.63;;;21.70;99.90;;;;;;4861733;29;20029;-83
2023/06/26 07:19:56;;;;;;;4.18;1.60;;;21.70;99.90;;;;;;4861179;29;20029;-83
2023/06/26 07:22:21;;;;;;;7.55;1.60;;;22.50;99.90;;;;;;4860989;29;20393;-84
2023/06/26 07:24:47;;;;;;;5.57;2.00;;;21.70;99.90;;;;;;4861066;29;20128;-83
2023/06/26 07:27:20;;;;;;;7.85;1.90;;;21.70;99.90;;;;;;4861420;29;20041;-83
2023/06/26 07:29:45;;;;;;;4.80;1.85;;;21.90;99.90;;;;;;4860333;29;20053;-83
2023/06/26 07:32:11;;;;;;;3.42;1.50;;;21.70;99.90;;;;;;4861382;29;20547;-84
2023/06/26 07:34:37;;;;;;;6.85;1.80;;;21.70;99.90;;;;;;4861166;29;20367;-83
2023/06/26 07:37:03;;;;;;;6.97;2.10;;;21.70;99.90;;;;;;4860245;29;20032;-84
2023/06/26 07:39:29;;;;;;;13.43;2.47;;;21.60;99.90;;;;;;4861280;29;20395;-84
2023/06/26 07:41:55;;;;;;;4.15;1.83;;;21.60;99.90;;;;;;4860421;29;20472;-83
2023/06/26 07:44:21;;;;;;;5.78;2.10;;;21.70;99.90;;;;;;4860946;29;20049;-83
2023/06/26 07:46:47;;;;;;;7.20;2.53;;;21.70;99.90;;;;;;4860862;29;20057;-84
2023/06/26 07:49:13;;;;;;;5.55;1.98;;;21.70;99.90;;;;;;4860530;29;20029;-84
2023/06/26 07:51:39;;;;;;;7.00;1.70;;;21.70;99.90;;;;;;4861190;29;20037;-84
2023/06/26 07:54:04;;;;;;;7.03;2.35;;;21.70;99.90;;;;;;4860754;29;20105;-84
2023/06/26 07:56:30;;;;;;;7.18;1.48;;;21.70;99.90;;;;;;4860261;29;20431;-84
2023/06/26 07:58:57;;;;;;;6.63;2.10;;;21.70;99.90;;;;;;4860575;29;20418;-84
2023/06/26 08:01:24;;;;;;;8.88;2.30;;;21.80;99.90;;;;;;4860716;29;20041;-84
2023/06/26 08:03:49;;;;;;;5.75;1.60;;;21.80;99.90;;;;;;4859820;29;20090;-83
2023/06/26 08:06:15;;;;;;;2.90;1.65;;;21.80;99.90;;;;;;4860759;29;20404;-83
2023/06/26 08:08:41;;;;;;;4.13;1.60;;;21.80;99.90;;;;;;4860878;29;20029;-83
2023/06/26 08:11:06;;;;;;;6.03;2.15;;;21.60;99.90;;;;;;4859983;29;20439;-83
2023/06/26 08:13:32;;;;;;;7.25;1.63;;;21.60;99.90;;;;;;4860828;29;20029;-83
2023/06/26 08:15:58;;;;;;;4.18;1.70;;;21.80;99.90;;;;;;4860204;29;20033;-83
2023/06/26 08:18:23;;;;;;;5.20;2.28;;;21.60;99.90;;;;;;4859646;29;20045;-83
2023/06/26 08:20:49;;;;;;;10.50;2.28;;;21.60;99.90;;;;;;4859953;29;20037;-83
2023/06/26 08:23:14;;;;;;;4.55;1.63;;;21.60;99.90;;;;;;4860314;29;20030;-83
2023/06/26 08:25:40;;;;;;;4.50;2.33;;;21.60;99.90;;;;;;4859793;29;20046;-83
2023/06/26 08:28:05;;;;;;;4.20;1.70;;;21.60;99.90;;;;;;4859974;29;20029;-83
2023/06/26 08:30:32;;;;;;;5.32;2.00;;;21.60;99.90;;;;;;4860302;29;20033;-83
2023/06/26 08:32:58;;;;;;;6.22;2.17;;;21.60;99.90;;;;;;4859421;29;20490;-83
2023/06/26 08:35:23;;;;;;;8.00;2.35;;;21.50;99.90;;;;;;4860293;29;20041;-83
2023/06/26 08:37:49;;;;;;;4.60;2.22;;;21.50;99.90;;;;;;4860212;29;20057;-83
2023/06/26 08:40:21;;;;;;;6.07;1.80;;;21.50;99.90;;;;;;4859693;29;20041;-83
2023/06/26 08:42:46;;;;;;;3.22;1.95;;;21.40;99.90;;;;;;4859911;29;20133;-83
2023/06/26 08:45:12;;;;;;;4.78;1.95;;;21.60;99.90;;;;;;4859686;29;20540;-84
2023/06/26 08:47:39;;;;;;;6.22;2.38;;;21.70;99.90;;;;;;4859994;29;20104;-83
2023/06/26 08:50:11;;;;;;;7.50;1.92;;;21.60;99.90;;;;;;4859971;29;20576;-83
2023/06/26 08:52:53;;;;;;;26.17;2.35;;;21.60;99.90;;;;;;4859507;29;20029;-83
2023/06/26 08:55:24;;;;;;;4.15;1.58;;;21.70;99.90;;;;;;4860179;29;20025;-83
2023/06/26 08:57:50;;;;;;;6.53;1.80;;;21.70;99.90;;;;;;4859735;29;20033;-83
2023/06/26 09:00:17;;;;;;;3.38;1.83;;;21.70;99.90;;;;;;4859083;29;20032;-83
2023/06/26 09:02:44;;;;;;;3.70;1.63;;;21.60;99.90;;;;;;4860128;29;20037;-83
2023/06/26 09:05:09;;;;;;;5.80;2.20;;;21.60;99.90;;;;;;4860034;29;20033;-83
2023/06/26 09:07:35;;;;;;;6.07;2.03;;;21.60;99.90;;;;;;4859184;29;20093;-83
2023/06/26 09:10:01;;;;;;;7.47;1.70;;;21.70;99.90;;;;;;4859779;29;20030;-83
2023/06/26 09:12:28;;;;;;;4.30;1.75;;;21.70;99.90;;;;;;4859810;29;20062;-83
2023/06/26 09:14:55;;;;;;;4.18;1.70;;;21.70;99.90;;;;;;4858745;29;20042;-83
2023/06/26 09:17:26;;;;;;;6.20;1.80;;;21.70;99.90;;;;;;4860060;29;20116;-83
2023/06/26 09:19:51;;;;;;;12.25;1.48;;;21.80;99.90;;;;;;4859466;29;20440;-82
2023/06/26 09:22:17;;;;;;;2.60;1.55;;;21.60;99.80;;;;;;4862331;29;20036;-83
2023/06/26 09:24:44;;;;;;;6.72;1.90;;;21.60;99.90;;;;;;4863457;29;20294;-83
2023/06/26 09:27:10;;;;;;;6.85;2.72;;;21.70;99.60;;;;;;4863210;29;20088;-83
2023/06/26 09:29:36;;;;;;;3.10;1.30;;;21.50;99.70;;;;;;4862741;29;20037;-83
2023/06/26 09:32:02;;;;;;;6.20;2.03;;;21.70;99.90;;;;;;4863427;29;20026;-83
2023/06/26 09:34:31;;;;;;;3.47;1.85;;;21.70;99.90;;;;;;4862873;29;20085;-83
2023/06/26 09:36:58;;;;;;;7.13;1.83;;;21.60;99.40;;;;;;4862999;29;20065;-83
2023/06/26 09:39:24;;;;;;;4.68;1.80;;;21.70;99.60;;;;;;4863193;29;20266;-83
2023/06/26 09:41:50;;;;;;;5.93;1.52;;;21.70;99.40;;;;;;4862027;29;20037;-83
2023/06/26 09:44:16;;;;;;;2.88;1.40;;;21.70;99.20;;;;;;4863312;29;20383;-83
2023/06/26 09:46:45;;;;;;;5.68;1.67;;;21.70;99.00;;;;;;4862853;29;20049;-83
2023/06/26 09:49:11;;;;;;;1.88;1.50;;;21.60;99.20;;;;;;4862736;29;20026;-83
2023/06/26 09:51:39;;;;;;;4.53;1.75;;;21.70;99.50;;;;;;4863215;29;20182;-83
2023/06/26 09:54:05;;;;;;;8.68;1.73;;;22.00;99.00;;;;;;4862568;29;20037;-83
2023/06/26 09:56:32;;;;;;;5.20;1.38;;;21.60;98.80;;;;;;4862300;29;20606;-82
2023/06/26 09:59:00;;;;;;;4.15;1.42;;;21.60;98.10;;;;;;4862482;29;20541;-82
2023/06/26 10:01:27;;;;;;;1.65;1.27;;;21.70;98.30;;;;;;4862789;29;20045;-83
2023/06/26 10:03:53;;;;;;;8.85;2.10;;;21.70;98.40;;;;;;4861765;29;20140;-83
2023/06/26 10:06:40;;;;;;;3.08;1.38;;;22.10;98.80;;;;;;4862837;29;20034;-83
2023/06/26 10:09:07;;;;;;;3.90;1.52;;;21.70;98.90;;;;;;4862862;29;20052;-83
2023/06/26 10:11:46;;;;;;;4.85;1.25;;;21.70;99.30;;;;;;4861807;29;20030;-83
2023/06/26 10:14:13;;;;;;;5.32;2.03;;;21.80;98.60;;;;;;4862582;29;20474;-83
2023/06/26 10:16:41;;;;;;;5.20;1.48;;;21.80;98.60;;;;;;4862125;29;20045;-83
2023/06/26 10:19:10;;;;;;;4.75;1.75;;;21.70;98.10;;;;;;4862546;29;20026;-83
2023/06/26 10:21:40;;;;;;;4.28;1.83;;;21.70;98.30;;;;;;4862227;29;20101;-83
2023/06/26 10:24:08;;;;;;;4.93;1.65;;;21.70;99.10;;;;;;4861447;29;20081;-82
2023/06/26 10:26:38;;;;;;;3.90;1.50;;;21.70;98.50;;;;;;4862462;29;20045;-83
2023/06/26 10:29:06;;;;;;;2.83;1.42;;;21.80;98.50;;;;;;4861979;29;20030;-83
2023/06/26 10:31:32;;;;;;;2.70;1.33;;;21.80;98.20;;;;;;4861263;29;20030;-83
2023/06/26 10:33:58;;;;;;;4.70;1.80;;;21.80;97.80;;;;;;4861365;29;20053;-83
2023/06/26 10:36:30;;;;;;;8.82;2.28;;;21.80;98.40;;;;;;4862177;29;20478;-83
2023/06/26 10:39:05;;;;;;;4.82;1.83;;;21.90;98.70;;;;;;4861510;29;20029;-83
2023/06/26 10:41:42;;;;;;;7.70;1.80;;;21.80;98.50;;;;;;4862381;29;20112;-83
2023/06/26 10:44:16;;;;;;;8.50;1.80;;;21.80;98.80;;;;;;4861959;29;20030;-83
2023/06/26 10:46:56;;;;;;;4.10;2.38;;;21.80;99.40;;;;;;4861249;29;20069;-83
2023/06/26 10:49:28;;;;;;;;;;;21.80;98.60;;;;;;4862396;29;20034;-83
2023/06/26 10:51:56;;;;;;;4.82;1.55;;;21.90;98.60;;;;;;4857988;29;20007;-83
2023/06/26 10:54:22;;;;;;;5.68;2.25;;;21.80;98.50;;;;;;4862040;29;20053;-83
2023/06/26 10:56:58;;;;;;;4.53;1.92;;;21.80;98.70;;;;;;4861481;29;20045;-83
2023/06/26 10:59:28;;;;;;;4.10;1.70;;;21.80;98.90;;;;;;4861275;29;20043;-83
2023/06/26 11:02:05;;;;;;;3.75;1.42;;;21.80;98.60;;;;;;4861510;29;20049;-83
2023/06/26 11:04:45;;;;;;;4.22;1.67;;;21.80;98.40;;;;;;4861809;29;20053;-83
2023/06/26 11:07:23;;;;;;;5.07;1.50;;;21.90;98.30;;;;;;4860994;29;20475;-83
2023/06/26 11:09:57;;;;;;;10.85;5.75;;;21.90;98.20;;;;;;4861360;29;20088;-83
2023/06/26 11:12:57;;;;;;;6.32;2.35;;;21.90;97.50;;;;;;4861706;29;20600;-83
2023/06/26 11:15:26;;;;;;;5.78;1.50;;;21.80;97.50;;;;;;4850628;29;20133;-83
2023/06/26 11:17:53;;;;;;;5.60;1.88;;;21.80;98.30;;;;;;4861145;29;20034;-83
2023/06/26 11:20:18;;;;;;;1.75;1.10;;;21.80;96.90;;;;;;4860956;29;20372;-83
2023/06/26 11:22:44;;;;;;;4.20;1.10;;;21.80;96.10;;;;;;4861430;29;20094;-83
2023/06/26 11:25:11;;;;;;;3.40;1.27;;;21.80;96.10;;;;;;4861095;29;20175;-83
2023/06/26 11:27:41;;;;;;;6.18;1.42;;;21.80;96.00;;;;;;4861102;29;20037;-83
2023/06/26 11:30:08;;;;;;;3.97;1.48;;;21.80;96.30;;;;;;4861059;29;20030;-83
2023/06/26 11:32:35;;;;;;;2.08;0.90;;;21.90;96.20;;;;;;4861509;29;20093;-83
2023/06/26 11:35:00;;;;;;;3.50;1.50;;;21.90;95.90;;;;;;4859897;29;20034;-83
2023/06/26 11:37:27;;;;;;;1.92;0.98;;;21.90;95.80;;;;;;4861327;29;20029;-83
2023/06/26 11:39:53;;;;;;;2.92;1.10;;;21.90;95.60;;;;;;4860947;29;20333;-83
2023/06/26 11:42:19;;;;;;;4.53;1.02;;;22.00;95.70;;;;;;4860054;29;20030;-83
2023/06/26 11:44:46;;;;;;;7.45;1.40;;;22.60;95.30;;;;;;4860276;29;20036;-83
2023/06/26 11:47:16;;;;;;;2.88;1.13;;;22.00;95.50;;;;;;4860456;29;20487;-83
2023/06/26 11:49:42;;;;;;;;;;;22.20;96.10;;;;;;4860553;29;20033;-83
2023/06/26 11:52:08;;;;;;;2.05;1.10;;;22.00;96.00;;;;;;4860730;29;19955;-82
2023/06/26 11:54:33;;;;;;;2.70;0.88;;;22.10;94.50;;;;;;4860914;29;20033;-83
2023/06/26 11:56:59;;;;;;;6.43;1.40;;;22.00;94.70;;;;;;4859785;29;20174;-83
2023/06/26 11:59:39;;;;;;;2.22;1.00;;;22.00;95.40;;;;;;4860718;29;20053;-82
2023/06/26 12:02:15;;;;;;;3.90;1.35;;;22.10;96.10;;;;;;4860966;29;20164;-83
2023/06/26 12:04:42;;;;;;;4.63;1.50;;;22.20;95.70;;;;;;4860754;29;20061;-83
2023/06/26 12:07:09;;;;;;;7.05;1.40;;;22.10;95.90;;;;;;4860218;29;20467;-83
2023/06/26 12:09:46;;;;;;;4.45;1.00;;;22.10;95.00;;;;;;4859968;29;20038;-83
2023/06/26 12:12:14;;;;;;;1.92;1.10;;;22.10;95.20;;;;;;4860595;29;20025;-83
2023/06/26 12:14:40;;;;;;;4.22;1.30;;;22.10;95.60;;;;;;4860835;29;20371;-83
2023/06/26 12:17:13;;;;;;;5.93;1.13;;;22.10;95.60;;;;;;4859565;29;20071;-83
2023/06/26 12:19:48;;;;;;;2.53;1.25;;;22.10;95.10;;;;;;4860503;29;20085;-83
2023/06/26 12:22:14;;;;;;;2.13;1.15;;;22.10;95.50;;;;;;4860539;29;20061;-83
2023/06/26 12:24:40;;;;;;;2.67;1.00;;;22.10;95.30;;;;;;4859250;29;20049;-83
2023/06/26 12:27:10;;;;;;;4.50;1.35;;;22.10;95.40;;;;;;4860296;29;20509;-83
2023/06/26 12:29:36;;;;;;;;;;;22.70;95.90;;;;;;4860364;29;20029;-83
2023/06/26 12:32:02;;;;;;;8.15;0.93;;;22.20;94.90;;;;;;4859219;29;19908;-83
2023/06/26 12:34:35;;;;;;;2.67;1.13;;;22.20;94.70;;;;;;4852391;29;20106;-83
2023/06/26 12:37:04;;;;;;;3.75;1.08;;;22.20;93.90;;;;;;4859890;29;20029;-83
2023/06/26 12:39:44;;;;;;;5.18;1.42;;;22.10;94.20;;;;;;4859663;29;20034;-83
2023/06/26 12:42:14;;;;;;;1.90;0.77;;;22.10;94.50;;;;;;4860185;29;20041;-83
2023/06/26 12:44:40;;;;;;;;;;;22.10;94.50;;;;;;4859373;29;20152;-83
2023/06/26 12:47:07;;;;;;;1.80;1.10;;;22.20;94.10;;;;;;4859779;29;20355;-82